sensor_id;sensor_type;location;lat;lon;timestamp;P1;durP1;ratioP1;P2;durP2;ratioP2
13083;SDS011;6608;48.790;9.198;2022-07-06T00:00:39;179.90;;;69.73;;
13083;SDS011;6608;48.790;9.198;2022-07-06T00:03:06;178.17;;;69.47;;
13083;SDS011;6608;48.790;9.198;2022-07-06T00:05:32;181.43;;;70.50;;
13083;SDS011;6608;48.790;9.198;2022-07-06T00:07:59;176.53;;;68.93;;
13083;SDS011;6608;48.790;9.198;2022-07-06T00:10:26;178.83;;;68.73;;
13083;SDS011;6608;48.790;9.198;2022-07-06T00:12:53;178.90;;;69.67;;
13083;SDS011;6608;48.790;9.198;2022-07-06T00:15:19;178.20;;;68.63;;
13083;SDS011;6608;48.790;9.198;2022-07-06T00:17:46;178.60;;;69.33;;
13083;SDS011;6608;48.790;9.198;2022-07-06T00:20:12;177.10;;;69.10;;
13083;SDS011;6608;48.790;9.198;2022-07-06T00:22:38;178.40;;;68.53;;
13083;SDS011;6608;48.790;9.198;2022-07-06T00:25:05;176.93;;;68.27;;
13083;SDS011;6608;48.790;9.198;2022-07-06T00:27:33;180.07;;;70.57;;
13083;SDS011;6608;48.790;9.198;2022-07-06T00:30:00;180.70;;;69.70;;
13083;SDS011;6608;48.790;9.198;2022-07-06T00:32:26;177.20;;;69.20;;
13083;SDS011;6608;48.790;9.198;2022-07-06T00:34:52;179.33;;;69.90;;
13083;SDS011;6608;48.790;9.198;2022-07-06T00:37:19;178.33;;;69.20;;
13083;SDS011;6608;48.790;9.198;2022-07-06T00:39:45;176.37;;;68.70;;
13083;SDS011;6608;48.790;9.198;2022-07-06T00:42:12;178.30;;;69.37;;
13083;SDS011;6608;48.790;9.198;2022-07-06T00:44:39;178.83;;;70.13;;
13083;SDS011;6608;48.790;9.198;2022-07-06T00:47:06;181.13;;;69.60;;
13083;SDS011;6608;48.790;9.198;2022-07-06T00:49:33;178.27;;;68.70;;
13083;SDS011;6608;48.790;9.198;2022-07-06T00:52:16;181.07;;;71.47;;
13083;SDS011;6608;48.790;9.198;2022-07-06T00:54:44;180.80;;;69.03;;
13083;SDS011;6608;48.790;9.198;2022-07-06T00:57:11;178.40;;;68.87;;
13083;SDS011;6608;48.790;9.198;2022-07-06T00:59:39;180.27;;;69.03;;
13083;SDS011;6608;48.790;9.198;2022-07-06T01:02:06;177.60;;;69.10;;
13083;SDS011;6608;48.790;9.198;2022-07-06T01:04:32;179.13;;;68.27;;
13083;SDS011;6608;48.790;9.198;2022-07-06T01:06:59;176.37;;;68.57;;
13083;SDS011;6608;48.790;9.198;2022-07-06T01:09:25;177.67;;;68.57;;
13083;SDS011;6608;48.790;9.198;2022-07-06T01:11:52;177.10;;;68.17;;
13083;SDS011;6608;48.790;9.198;2022-07-06T01:14:19;180.73;;;68.73;;
13083;SDS011;6608;48.790;9.198;2022-07-06T01:16:47;177.93;;;68.43;;
13083;SDS011;6608;48.790;9.198;2022-07-06T01:19:14;176.40;;;68.03;;
13083;SDS011;6608;48.790;9.198;2022-07-06T01:21:42;176.63;;;68.57;;
13083;SDS011;6608;48.790;9.198;2022-07-06T01:24:08;177.90;;;69.23;;
13083;SDS011;6608;48.790;9.198;2022-07-06T01:26:34;179.47;;;69.47;;
13083;SDS011;6608;48.790;9.198;2022-07-06T01:29:01;176.87;;;67.83;;
13083;SDS011;6608;48.790;9.198;2022-07-06T01:31:28;177.10;;;68.57;;
13083;SDS011;6608;48.790;9.198;2022-07-06T01:33:55;177.80;;;68.43;;
13083;SDS011;6608;48.790;9.198;2022-07-06T01:36:21;178.90;;;68.83;;
13083;SDS011;6608;48.790;9.198;2022-07-06T01:38:50;177.83;;;68.67;;
13083;SDS011;6608;48.790;9.198;2022-07-06T01:41:17;178.93;;;68.43;;
13083;SDS011;6608;48.790;9.198;2022-07-06T01:43:44;175.73;;;67.43;;
13083;SDS011;6608;48.790;9.198;2022-07-06T01:46:10;180.20;;;68.63;;
13083;SDS011;6608;48.790;9.198;2022-07-06T01:48:37;175.93;;;68.53;;
13083;SDS011;6608;48.790;9.198;2022-07-06T01:51:03;176.20;;;68.43;;
13083;SDS011;6608;48.790;9.198;2022-07-06T01:53:30;176.33;;;67.77;;
13083;SDS011;6608;48.790;9.198;2022-07-06T01:55:58;176.63;;;69.10;;
13083;SDS011;6608;48.790;9.198;2022-07-06T01:58:25;175.60;;;68.00;;
13083;SDS011;6608;48.790;9.198;2022-07-06T02:00:51;178.33;;;67.67;;
13083;SDS011;6608;48.790;9.198;2022-07-06T02:03:18;177.43;;;67.50;;
13083;SDS011;6608;48.790;9.198;2022-07-06T02:05:44;175.70;;;67.63;;
13083;SDS011;6608;48.790;9.198;2022-07-06T02:08:11;176.10;;;68.30;;
13083;SDS011;6608;48.790;9.198;2022-07-06T02:10:37;176.63;;;69.10;;
13083;SDS011;6608;48.790;9.198;2022-07-06T02:13:05;175.23;;;67.80;;
13083;SDS011;6608;48.790;9.198;2022-07-06T02:15:31;174.37;;;67.77;;
13083;SDS011;6608;48.790;9.198;2022-07-06T02:17:58;176.47;;;68.73;;
13083;SDS011;6608;48.790;9.198;2022-07-06T02:20:24;175.03;;;68.03;;
13083;SDS011;6608;48.790;9.198;2022-07-06T02:22:51;176.73;;;68.40;;
13083;SDS011;6608;48.790;9.198;2022-07-06T02:25:17;177.47;;;67.53;;
13083;SDS011;6608;48.790;9.198;2022-07-06T02:27:43;173.80;;;67.10;;
13083;SDS011;6608;48.790;9.198;2022-07-06T02:30:11;175.90;;;68.60;;
13083;SDS011;6608;48.790;9.198;2022-07-06T02:32:38;177.20;;;69.17;;
13083;SDS011;6608;48.790;9.198;2022-07-06T02:35:04;174.17;;;67.50;;
13083;SDS011;6608;48.790;9.198;2022-07-06T02:37:31;173.17;;;66.87;;
13083;SDS011;6608;48.790;9.198;2022-07-06T02:39:57;174.63;;;67.50;;
13083;SDS011;6608;48.790;9.198;2022-07-06T02:42:24;176.40;;;67.47;;
13083;SDS011;6608;48.790;9.198;2022-07-06T02:44:51;174.27;;;68.23;;
13083;SDS011;6608;48.790;9.198;2022-07-06T02:47:19;175.60;;;67.67;;
13083;SDS011;6608;48.790;9.198;2022-07-06T02:49:46;174.80;;;67.77;;
13083;SDS011;6608;48.790;9.198;2022-07-06T02:52:12;173.83;;;66.57;;
13083;SDS011;6608;48.790;9.198;2022-07-06T02:54:39;172.83;;;66.93;;
13083;SDS011;6608;48.790;9.198;2022-07-06T02:57:05;175.23;;;67.73;;
13083;SDS011;6608;48.790;9.198;2022-07-06T02:59:31;174.63;;;66.70;;
13083;SDS011;6608;48.790;9.198;2022-07-06T03:01:58;179.10;;;68.13;;
13083;SDS011;6608;48.790;9.198;2022-07-06T03:04:26;175.63;;;68.17;;
13083;SDS011;6608;48.790;9.198;2022-07-06T03:06:52;171.60;;;66.50;;
13083;SDS011;6608;48.790;9.198;2022-07-06T03:09:18;173.07;;;66.73;;
13083;SDS011;6608;48.790;9.198;2022-07-06T03:11:45;172.60;;;67.37;;
13083;SDS011;6608;48.790;9.198;2022-07-06T03:14:11;169.37;;;66.27;;
13083;SDS011;6608;48.790;9.198;2022-07-06T03:16:38;175.10;;;67.80;;
13083;SDS011;6608;48.790;9.198;2022-07-06T03:19:04;173.70;;;67.00;;
13083;SDS011;6608;48.790;9.198;2022-07-06T03:21:32;174.00;;;66.53;;
13083;SDS011;6608;48.790;9.198;2022-07-06T03:23:59;171.80;;;67.20;;
13083;SDS011;6608;48.790;9.198;2022-07-06T03:26:25;172.77;;;67.03;;
13083;SDS011;6608;48.790;9.198;2022-07-06T03:28:52;171.03;;;66.30;;
13083;SDS011;6608;48.790;9.198;2022-07-06T03:31:18;170.67;;;67.00;;
13083;SDS011;6608;48.790;9.198;2022-07-06T03:33:45;173.90;;;67.40;;
13083;SDS011;6608;48.790;9.198;2022-07-06T03:36:11;173.37;;;66.77;;
13083;SDS011;6608;48.790;9.198;2022-07-06T03:38:39;172.67;;;68.20;;
13083;SDS011;6608;48.790;9.198;2022-07-06T03:41:05;170.57;;;66.77;;
13083;SDS011;6608;48.790;9.198;2022-07-06T03:43:32;173.03;;;66.53;;
13083;SDS011;6608;48.790;9.198;2022-07-06T03:45:58;170.47;;;66.63;;
13083;SDS011;6608;48.790;9.198;2022-07-06T03:48:25;171.90;;;67.17;;
13083;SDS011;6608;48.790;9.198;2022-07-06T03:50:51;171.60;;;67.77;;
13083;SDS011;6608;48.790;9.198;2022-07-06T03:53:18;175.07;;;67.00;;
13083;SDS011;6608;48.790;9.198;2022-07-06T03:55:46;174.03;;;66.47;;
13083;SDS011;6608;48.790;9.198;2022-07-06T03:58:33;171.70;;;66.60;;
13083;SDS011;6608;48.790;9.198;2022-07-06T04:00:59;176.83;;;66.63;;
13083;SDS011;6608;48.790;9.198;2022-07-06T04:03:26;179.27;;;68.10;;
13083;SDS011;6608;48.790;9.198;2022-07-06T04:05:52;170.73;;;66.80;;
13083;SDS011;6608;48.790;9.198;2022-07-06T04:08:19;172.73;;;67.20;;
13083;SDS011;6608;48.790;9.198;2022-07-06T04:10:47;174.80;;;66.90;;
13083;SDS011;6608;48.790;9.198;2022-07-06T04:13:13;171.80;;;67.37;;
13083;SDS011;6608;48.790;9.198;2022-07-06T04:15:40;171.77;;;67.20;;
13083;SDS011;6608;48.790;9.198;2022-07-06T04:18:06;173.47;;;67.97;;
13083;SDS011;6608;48.790;9.198;2022-07-06T04:20:33;169.90;;;66.43;;
13083;SDS011;6608;48.790;9.198;2022-07-06T04:22:59;174.63;;;68.83;;
13083;SDS011;6608;48.790;9.198;2022-07-06T04:25:26;175.17;;;68.13;;
13083;SDS011;6608;48.790;9.198;2022-07-06T04:27:54;173.90;;;66.60;;
13083;SDS011;6608;48.790;9.198;2022-07-06T04:30:21;173.00;;;68.13;;
13083;SDS011;6608;48.790;9.198;2022-07-06T04:32:47;172.43;;;67.20;;
13083;SDS011;6608;48.790;9.198;2022-07-06T04:35:14;174.10;;;67.37;;
13083;SDS011;6608;48.790;9.198;2022-07-06T04:37:40;177.33;;;68.07;;
13083;SDS011;6608;48.790;9.198;2022-07-06T04:40:07;170.87;;;66.80;;
13083;SDS011;6608;48.790;9.198;2022-07-06T04:42:33;171.33;;;67.67;;
13083;SDS011;6608;48.790;9.198;2022-07-06T04:45:01;173.70;;;68.43;;
13083;SDS011;6608;48.790;9.198;2022-07-06T04:47:28;172.20;;;67.70;;
13083;SDS011;6608;48.790;9.198;2022-07-06T04:49:54;170.37;;;66.90;;
13083;SDS011;6608;48.790;9.198;2022-07-06T04:52:21;175.57;;;68.63;;
13083;SDS011;6608;48.790;9.198;2022-07-06T04:54:47;173.97;;;68.23;;
13083;SDS011;6608;48.790;9.198;2022-07-06T04:57:13;171.97;;;68.53;;
13083;SDS011;6608;48.790;9.198;2022-07-06T04:59:40;171.97;;;67.93;;
13083;SDS011;6608;48.790;9.198;2022-07-06T05:02:08;172.03;;;68.33;;
13083;SDS011;6608;48.790;9.198;2022-07-06T05:04:34;171.60;;;68.73;;
13083;SDS011;6608;48.790;9.198;2022-07-06T05:07:01;175.50;;;69.53;;
13083;SDS011;6608;48.790;9.198;2022-07-06T05:09:27;173.77;;;68.73;;
13083;SDS011;6608;48.790;9.198;2022-07-06T05:11:53;172.33;;;69.27;;
13083;SDS011;6608;48.790;9.198;2022-07-06T05:14:20;177.13;;;70.90;;
13083;SDS011;6608;48.790;9.198;2022-07-06T05:16:46;174.23;;;69.13;;
13083;SDS011;6608;48.790;9.198;2022-07-06T05:19:17;179.07;;;71.90;;
13083;SDS011;6608;48.790;9.198;2022-07-06T05:21:43;173.83;;;70.20;;
13083;SDS011;6608;48.790;9.198;2022-07-06T05:24:10;175.13;;;70.13;;
13083;SDS011;6608;48.790;9.198;2022-07-06T05:26:36;183.50;;;71.83;;
13083;SDS011;6608;48.790;9.198;2022-07-06T05:29:03;172.17;;;69.20;;
13083;SDS011;6608;48.790;9.198;2022-07-06T05:31:29;180.83;;;70.47;;
13083;SDS011;6608;48.790;9.198;2022-07-06T05:33:55;176.80;;;70.63;;
13083;SDS011;6608;48.790;9.198;2022-07-06T05:36:23;179.17;;;71.00;;
13083;SDS011;6608;48.790;9.198;2022-07-06T05:38:50;175.40;;;69.90;;
13083;SDS011;6608;48.790;9.198;2022-07-06T05:41:16;174.80;;;68.47;;
13083;SDS011;6608;48.790;9.198;2022-07-06T05:43:43;171.93;;;68.00;;
13083;SDS011;6608;48.790;9.198;2022-07-06T05:46:09;173.23;;;69.60;;
13083;SDS011;6608;48.790;9.198;2022-07-06T05:48:36;172.77;;;70.97;;
13083;SDS011;6608;48.790;9.198;2022-07-06T05:51:16;174.73;;;67.63;;
13083;SDS011;6608;48.790;9.198;2022-07-06T05:53:44;173.70;;;69.27;;
13083;SDS011;6608;48.790;9.198;2022-07-06T05:56:10;175.17;;;69.67;;
13083;SDS011;6608;48.790;9.198;2022-07-06T05:58:37;177.93;;;70.17;;
13083;SDS011;6608;48.790;9.198;2022-07-06T06:01:03;176.73;;;69.70;;
13083;SDS011;6608;48.790;9.198;2022-07-06T06:03:32;175.43;;;69.07;;
13083;SDS011;6608;48.790;9.198;2022-07-06T06:05:58;173.63;;;69.00;;
13083;SDS011;6608;48.790;9.198;2022-07-06T06:08:24;170.77;;;68.37;;
13083;SDS011;6608;48.790;9.198;2022-07-06T06:10:52;175.30;;;68.83;;
13083;SDS011;6608;48.790;9.198;2022-07-06T06:13:19;175.33;;;69.50;;
13083;SDS011;6608;48.790;9.198;2022-07-06T06:15:45;172.83;;;68.43;;
13083;SDS011;6608;48.790;9.198;2022-07-06T06:18:12;179.53;;;68.87;;
13083;SDS011;6608;48.790;9.198;2022-07-06T06:20:41;174.27;;;69.90;;
13083;SDS011;6608;48.790;9.198;2022-07-06T06:23:08;173.20;;;70.13;;
13083;SDS011;6608;48.790;9.198;2022-07-06T06:25:35;176.97;;;70.60;;
13083;SDS011;6608;48.790;9.198;2022-07-06T06:28:03;173.93;;;70.13;;
13083;SDS011;6608;48.790;9.198;2022-07-06T06:30:30;178.17;;;71.70;;
13083;SDS011;6608;48.790;9.198;2022-07-06T06:33:05;174.90;;;70.17;;
13083;SDS011;6608;48.790;9.198;2022-07-06T06:35:31;177.43;;;71.13;;
13083;SDS011;6608;48.790;9.198;2022-07-06T06:37:58;178.50;;;71.67;;
13083;SDS011;6608;48.790;9.198;2022-07-06T06:40:24;175.93;;;69.23;;
13083;SDS011;6608;48.790;9.198;2022-07-06T06:42:51;176.80;;;69.97;;
13083;SDS011;6608;48.790;9.198;2022-07-06T06:45:18;177.90;;;69.53;;
13083;SDS011;6608;48.790;9.198;2022-07-06T06:47:45;173.50;;;69.37;;
13083;SDS011;6608;48.790;9.198;2022-07-06T06:50:11;176.30;;;70.53;;
13083;SDS011;6608;48.790;9.198;2022-07-06T06:52:38;176.30;;;69.77;;
13083;SDS011;6608;48.790;9.198;2022-07-06T06:55:04;172.10;;;69.77;;
13083;SDS011;6608;48.790;9.198;2022-07-06T06:57:31;174.57;;;70.60;;
13083;SDS011;6608;48.790;9.198;2022-07-06T06:59:58;178.40;;;71.03;;
13083;SDS011;6608;48.790;9.198;2022-07-06T07:02:25;175.13;;;70.90;;
13083;SDS011;6608;48.790;9.198;2022-07-06T07:04:52;175.17;;;71.30;;
13083;SDS011;6608;48.790;9.198;2022-07-06T07:07:19;173.80;;;70.93;;
13083;SDS011;6608;48.790;9.198;2022-07-06T07:09:45;179.87;;;70.47;;
13083;SDS011;6608;48.790;9.198;2022-07-06T07:12:12;174.60;;;70.77;;
13083;SDS011;6608;48.790;9.198;2022-07-06T07:14:40;176.17;;;70.97;;
13083;SDS011;6608;48.790;9.198;2022-07-06T07:17:09;174.80;;;71.13;;
13083;SDS011;6608;48.790;9.198;2022-07-06T07:19:39;178.07;;;72.07;;
13083;SDS011;6608;48.790;9.198;2022-07-06T07:22:06;174.23;;;70.47;;
13083;SDS011;6608;48.790;9.198;2022-07-06T07:24:33;180.30;;;74.47;;
13083;SDS011;6608;48.790;9.198;2022-07-06T07:26:59;173.97;;;70.73;;
13083;SDS011;6608;48.790;9.198;2022-07-06T07:29:30;175.77;;;72.03;;
13083;SDS011;6608;48.790;9.198;2022-07-06T07:31:57;178.07;;;71.53;;
13083;SDS011;6608;48.790;9.198;2022-07-06T07:34:23;176.33;;;72.93;;
13083;SDS011;6608;48.790;9.198;2022-07-06T07:36:51;181.10;;;71.97;;
13083;SDS011;6608;48.790;9.198;2022-07-06T07:39:18;178.37;;;73.33;;
13083;SDS011;6608;48.790;9.198;2022-07-06T07:41:44;175.80;;;71.80;;
13083;SDS011;6608;48.790;9.198;2022-07-06T07:44:10;178.33;;;72.47;;
13083;SDS011;6608;48.790;9.198;2022-07-06T07:46:37;180.40;;;74.77;;
13083;SDS011;6608;48.790;9.198;2022-07-06T07:49:03;179.13;;;71.03;;
13083;SDS011;6608;48.790;9.198;2022-07-06T07:51:30;175.87;;;71.13;;
13083;SDS011;6608;48.790;9.198;2022-07-06T07:53:58;177.30;;;71.40;;
13083;SDS011;6608;48.790;9.198;2022-07-06T07:56:25;178.90;;;72.70;;
13083;SDS011;6608;48.790;9.198;2022-07-06T07:58:51;179.13;;;71.77;;
13083;SDS011;6608;48.790;9.198;2022-07-06T08:01:18;179.73;;;73.30;;
13083;SDS011;6608;48.790;9.198;2022-07-06T08:03:44;177.20;;;72.17;;
13083;SDS011;6608;48.790;9.198;2022-07-06T08:06:11;178.53;;;72.63;;
13083;SDS011;6608;48.790;9.198;2022-07-06T08:08:37;189.33;;;76.67;;
13083;SDS011;6608;48.790;9.198;2022-07-06T08:11:05;183.77;;;75.60;;
13083;SDS011;6608;48.790;9.198;2022-07-06T08:13:32;175.53;;;72.13;;
13083;SDS011;6608;48.790;9.198;2022-07-06T08:15:59;180.13;;;72.33;;
13083;SDS011;6608;48.790;9.198;2022-07-06T08:18:25;178.83;;;71.70;;
13083;SDS011;6608;48.790;9.198;2022-07-06T08:20:52;175.97;;;71.10;;
13083;SDS011;6608;48.790;9.198;2022-07-06T08:23:21;191.13;;;79.03;;
13083;SDS011;6608;48.790;9.198;2022-07-06T08:25:48;180.43;;;72.87;;
13083;SDS011;6608;48.790;9.198;2022-07-06T08:28:16;183.43;;;73.53;;
13083;SDS011;6608;48.790;9.198;2022-07-06T08:30:42;179.13;;;72.17;;
13083;SDS011;6608;48.790;9.198;2022-07-06T08:33:09;178.87;;;74.20;;
13083;SDS011;6608;48.790;9.198;2022-07-06T08:35:35;174.80;;;72.03;;
13083;SDS011;6608;48.790;9.198;2022-07-06T08:38:02;180.37;;;74.60;;
13083;SDS011;6608;48.790;9.198;2022-07-06T08:40:30;176.47;;;71.63;;
13083;SDS011;6608;48.790;9.198;2022-07-06T08:42:57;175.30;;;71.10;;
13083;SDS011;6608;48.790;9.198;2022-07-06T08:45:26;179.00;;;72.67;;
13083;SDS011;6608;48.790;9.198;2022-07-06T08:47:56;173.63;;;70.50;;
13083;SDS011;6608;48.790;9.198;2022-07-06T08:50:24;178.93;;;74.13;;
13083;SDS011;6608;48.790;9.198;2022-07-06T08:52:51;178.20;;;73.53;;
13083;SDS011;6608;48.790;9.198;2022-07-06T08:55:18;176.70;;;72.67;;
13083;SDS011;6608;48.790;9.198;2022-07-06T08:57:44;176.23;;;73.07;;
13083;SDS011;6608;48.790;9.198;2022-07-06T09:00:12;177.00;;;72.10;;
13083;SDS011;6608;48.790;9.198;2022-07-06T09:02:40;176.60;;;71.47;;
13083;SDS011;6608;48.790;9.198;2022-07-06T09:05:07;175.43;;;70.93;;
13083;SDS011;6608;48.790;9.198;2022-07-06T09:07:34;176.70;;;70.73;;
13083;SDS011;6608;48.790;9.198;2022-07-06T09:10:01;177.53;;;72.83;;
13083;SDS011;6608;48.790;9.198;2022-07-06T09:12:30;175.50;;;72.37;;
13083;SDS011;6608;48.790;9.198;2022-07-06T09:14:57;179.20;;;73.90;;
13083;SDS011;6608;48.790;9.198;2022-07-06T09:17:25;180.17;;;74.27;;
13083;SDS011;6608;48.790;9.198;2022-07-06T09:19:53;177.33;;;74.87;;
13083;SDS011;6608;48.790;9.198;2022-07-06T09:22:27;174.03;;;71.73;;
13083;SDS011;6608;48.790;9.198;2022-07-06T09:25:00;202.50;;;90.20;;
13083;SDS011;6608;48.790;9.198;2022-07-06T09:27:27;181.07;;;74.27;;
13083;SDS011;6608;48.790;9.198;2022-07-06T09:29:55;179.27;;;74.20;;
13083;SDS011;6608;48.790;9.198;2022-07-06T09:32:25;179.10;;;75.33;;
13083;SDS011;6608;48.790;9.198;2022-07-06T09:34:53;178.17;;;75.23;;
13083;SDS011;6608;48.790;9.198;2022-07-06T09:37:21;182.83;;;74.10;;
13083;SDS011;6608;48.790;9.198;2022-07-06T09:39:47;182.73;;;74.97;;
13083;SDS011;6608;48.790;9.198;2022-07-06T09:42:14;182.90;;;74.97;;
13083;SDS011;6608;48.790;9.198;2022-07-06T09:44:41;178.10;;;73.87;;
13083;SDS011;6608;48.790;9.198;2022-07-06T09:47:08;179.87;;;76.53;;
13083;SDS011;6608;48.790;9.198;2022-07-06T09:49:35;176.17;;;73.87;;
13083;SDS011;6608;48.790;9.198;2022-07-06T09:52:04;178.40;;;73.50;;
13083;SDS011;6608;48.790;9.198;2022-07-06T09:54:32;180.30;;;75.60;;
13083;SDS011;6608;48.790;9.198;2022-07-06T09:56:59;178.33;;;73.17;;
13083;SDS011;6608;48.790;9.198;2022-07-06T09:59:26;180.83;;;76.77;;
13083;SDS011;6608;48.790;9.198;2022-07-06T10:01:53;177.07;;;75.00;;
13083;SDS011;6608;48.790;9.198;2022-07-06T10:04:20;178.03;;;75.90;;
13083;SDS011;6608;48.790;9.198;2022-07-06T10:06:50;178.83;;;74.07;;
13083;SDS011;6608;48.790;9.198;2022-07-06T10:09:18;189.53;;;77.97;;
13083;SDS011;6608;48.790;9.198;2022-07-06T10:11:47;178.30;;;77.33;;
13083;SDS011;6608;48.790;9.198;2022-07-06T10:14:15;183.13;;;75.53;;
13083;SDS011;6608;48.790;9.198;2022-07-06T10:16:43;182.67;;;79.00;;
13083;SDS011;6608;48.790;9.198;2022-07-06T10:19:11;179.87;;;77.30;;
13083;SDS011;6608;48.790;9.198;2022-07-06T10:21:39;183.03;;;79.03;;
13083;SDS011;6608;48.790;9.198;2022-07-06T10:24:06;182.03;;;77.20;;
13083;SDS011;6608;48.790;9.198;2022-07-06T10:26:35;179.30;;;77.60;;
13083;SDS011;6608;48.790;9.198;2022-07-06T10:29:02;185.87;;;80.50;;
13083;SDS011;6608;48.790;9.198;2022-07-06T10:31:29;179.77;;;77.53;;
13083;SDS011;6608;48.790;9.198;2022-07-06T10:33:56;179.40;;;78.23;;
13083;SDS011;6608;48.790;9.198;2022-07-06T10:36:23;182.80;;;76.87;;
13083;SDS011;6608;48.790;9.198;2022-07-06T10:38:50;182.00;;;80.40;;
13083;SDS011;6608;48.790;9.198;2022-07-06T10:41:17;178.20;;;77.57;;
13083;SDS011;6608;48.790;9.198;2022-07-06T10:43:45;181.00;;;76.60;;
13083;SDS011;6608;48.790;9.198;2022-07-06T10:46:14;179.37;;;75.60;;
13083;SDS011;6608;48.790;9.198;2022-07-06T10:48:42;184.57;;;76.63;;
13083;SDS011;6608;48.790;9.198;2022-07-06T10:51:11;179.30;;;75.87;;
13083;SDS011;6608;48.790;9.198;2022-07-06T10:53:39;177.33;;;73.77;;
13083;SDS011;6608;48.790;9.198;2022-07-06T10:56:06;182.70;;;75.83;;
13083;SDS011;6608;48.790;9.198;2022-07-06T10:58:36;179.00;;;74.37;;
13083;SDS011;6608;48.790;9.198;2022-07-06T11:01:05;179.80;;;74.07;;
13083;SDS011;6608;48.790;9.198;2022-07-06T11:03:33;181.17;;;75.67;;
13083;SDS011;6608;48.790;9.198;2022-07-06T11:06:00;182.80;;;73.30;;
13083;SDS011;6608;48.790;9.198;2022-07-06T11:08:43;177.70;;;73.73;;
13083;SDS011;6608;48.790;9.198;2022-07-06T11:11:13;174.77;;;73.23;;
13083;SDS011;6608;48.790;9.198;2022-07-06T11:13:42;177.57;;;74.13;;
13083;SDS011;6608;48.790;9.198;2022-07-06T11:16:10;180.50;;;73.73;;
13083;SDS011;6608;48.790;9.198;2022-07-06T11:18:40;175.47;;;73.13;;
13083;SDS011;6608;48.790;9.198;2022-07-06T11:21:20;178.13;;;75.43;;
13083;SDS011;6608;48.790;9.198;2022-07-06T11:23:47;182.97;;;73.43;;
13083;SDS011;6608;48.790;9.198;2022-07-06T11:26:14;177.67;;;75.83;;
13083;SDS011;6608;48.790;9.198;2022-07-06T11:28:40;177.43;;;74.23;;
13083;SDS011;6608;48.790;9.198;2022-07-06T11:31:07;183.93;;;75.60;;
13083;SDS011;6608;48.790;9.198;2022-07-06T11:33:35;175.37;;;74.73;;
13083;SDS011;6608;48.790;9.198;2022-07-06T11:36:11;176.20;;;74.10;;
13083;SDS011;6608;48.790;9.198;2022-07-06T11:38:38;182.07;;;76.33;;
13083;SDS011;6608;48.790;9.198;2022-07-06T11:41:04;176.77;;;74.07;;
13083;SDS011;6608;48.790;9.198;2022-07-06T11:43:31;175.60;;;72.43;;
13083;SDS011;6608;48.790;9.198;2022-07-06T11:45:57;178.97;;;74.10;;
13083;SDS011;6608;48.790;9.198;2022-07-06T11:48:24;178.97;;;73.70;;
13083;SDS011;6608;48.790;9.198;2022-07-06T11:50:58;183.30;;;75.43;;
13083;SDS011;6608;48.790;9.198;2022-07-06T11:53:25;177.87;;;73.37;;
13083;SDS011;6608;48.790;9.198;2022-07-06T11:55:51;175.33;;;74.10;;
13083;SDS011;6608;48.790;9.198;2022-07-06T11:58:18;179.43;;;74.07;;
13083;SDS011;6608;48.790;9.198;2022-07-06T12:03:27;175.80;;;74.23;;
13083;SDS011;6608;48.790;9.198;2022-07-06T12:05:54;177.50;;;72.83;;
13083;SDS011;6608;48.790;9.198;2022-07-06T12:08:22;179.60;;;75.87;;
13083;SDS011;6608;48.790;9.198;2022-07-06T12:10:48;175.77;;;73.03;;
13083;SDS011;6608;48.790;9.198;2022-07-06T12:13:14;177.17;;;74.13;;
13083;SDS011;6608;48.790;9.198;2022-07-06T12:15:41;176.83;;;75.13;;
13083;SDS011;6608;48.790;9.198;2022-07-06T12:18:07;176.30;;;75.67;;
13083;SDS011;6608;48.790;9.198;2022-07-06T12:20:34;178.03;;;74.83;;
13083;SDS011;6608;48.790;9.198;2022-07-06T12:23:01;179.00;;;75.87;;
13083;SDS011;6608;48.790;9.198;2022-07-06T12:25:32;177.90;;;73.67;;
13083;SDS011;6608;48.790;9.198;2022-07-06T12:27:59;176.33;;;73.73;;
13083;SDS011;6608;48.790;9.198;2022-07-06T12:30:25;176.27;;;73.70;;
13083;SDS011;6608;48.790;9.198;2022-07-06T12:33:11;179.97;;;75.03;;
13083;SDS011;6608;48.790;9.198;2022-07-06T12:35:38;181.80;;;74.60;;
13083;SDS011;6608;48.790;9.198;2022-07-06T12:38:05;179.70;;;72.53;;
13083;SDS011;6608;48.790;9.198;2022-07-06T12:40:34;180.67;;;73.70;;
13083;SDS011;6608;48.790;9.198;2022-07-06T12:43:01;183.33;;;72.97;;
13083;SDS011;6608;48.790;9.198;2022-07-06T12:45:28;178.43;;;72.70;;
13083;SDS011;6608;48.790;9.198;2022-07-06T12:47:58;181.70;;;73.47;;
13083;SDS011;6608;48.790;9.198;2022-07-06T12:50:31;178.50;;;72.97;;
13083;SDS011;6608;48.790;9.198;2022-07-06T12:52:58;179.27;;;72.23;;
13083;SDS011;6608;48.790;9.198;2022-07-06T12:55:25;183.37;;;75.07;;
13083;SDS011;6608;48.790;9.198;2022-07-06T12:57:54;181.40;;;74.73;;
13083;SDS011;6608;48.790;9.198;2022-07-06T13:00:21;178.30;;;74.73;;
13083;SDS011;6608;48.790;9.198;2022-07-06T13:02:48;177.73;;;73.00;;
13083;SDS011;6608;48.790;9.198;2022-07-06T13:05:21;179.10;;;74.67;;
13083;SDS011;6608;48.790;9.198;2022-07-06T13:07:52;178.00;;;74.53;;
13083;SDS011;6608;48.790;9.198;2022-07-06T13:10:19;180.03;;;74.47;;
13083;SDS011;6608;48.790;9.198;2022-07-06T13:12:45;176.23;;;72.03;;
13083;SDS011;6608;48.790;9.198;2022-07-06T13:15:13;178.03;;;74.27;;
13083;SDS011;6608;48.790;9.198;2022-07-06T13:17:40;176.33;;;72.97;;
13083;SDS011;6608;48.790;9.198;2022-07-06T13:20:07;179.17;;;73.43;;
13083;SDS011;6608;48.790;9.198;2022-07-06T13:22:34;179.37;;;72.17;;
13083;SDS011;6608;48.790;9.198;2022-07-06T13:25:01;179.70;;;73.40;;
13083;SDS011;6608;48.790;9.198;2022-07-06T13:27:27;177.50;;;71.83;;
13083;SDS011;6608;48.790;9.198;2022-07-06T13:29:54;177.33;;;73.43;;
13083;SDS011;6608;48.790;9.198;2022-07-06T13:32:22;181.20;;;74.20;;
13083;SDS011;6608;48.790;9.198;2022-07-06T13:34:48;178.87;;;73.57;;
13083;SDS011;6608;48.790;9.198;2022-07-06T13:37:15;177.37;;;73.47;;
13083;SDS011;6608;48.790;9.198;2022-07-06T13:39:41;180.83;;;73.30;;
13083;SDS011;6608;48.790;9.198;2022-07-06T13:42:08;179.83;;;72.77;;
13083;SDS011;6608;48.790;9.198;2022-07-06T13:44:34;180.90;;;76.67;;
13083;SDS011;6608;48.790;9.198;2022-07-06T13:47:01;180.00;;;73.43;;
13083;SDS011;6608;48.790;9.198;2022-07-06T13:49:29;176.67;;;73.10;;
13083;SDS011;6608;48.790;9.198;2022-07-06T13:51:55;177.13;;;73.40;;
13083;SDS011;6608;48.790;9.198;2022-07-06T13:54:27;183.30;;;74.50;;
13083;SDS011;6608;48.790;9.198;2022-07-06T13:56:53;175.93;;;73.27;;
13083;SDS011;6608;48.790;9.198;2022-07-06T13:59:20;180.80;;;73.97;;
13083;SDS011;6608;48.790;9.198;2022-07-06T14:01:46;178.63;;;74.63;;
13083;SDS011;6608;48.790;9.198;2022-07-06T14:04:13;176.73;;;73.80;;
13083;SDS011;6608;48.790;9.198;2022-07-06T14:06:41;179.53;;;74.80;;
13083;SDS011;6608;48.790;9.198;2022-07-06T14:09:07;175.57;;;72.53;;
13083;SDS011;6608;48.790;9.198;2022-07-06T14:11:34;177.90;;;74.60;;
13083;SDS011;6608;48.790;9.198;2022-07-06T14:14:00;175.37;;;72.40;;
13083;SDS011;6608;48.790;9.198;2022-07-06T14:16:27;180.10;;;75.63;;
13083;SDS011;6608;48.790;9.198;2022-07-06T14:18:53;182.90;;;72.60;;
13083;SDS011;6608;48.790;9.198;2022-07-06T14:21:20;175.80;;;72.53;;
13083;SDS011;6608;48.790;9.198;2022-07-06T14:23:50;177.67;;;72.50;;